sensor_id;sensor_type;location;lat;lon;timestamp;temperature;humidity
19085;DHT22;9675;51.538;6.728;2022-10-31T00:00:53;20.00;99.90
19085;DHT22;9675;51.538;6.728;2022-10-31T00:03:20;20.00;99.90
19085;DHT22;9675;51.538;6.728;2022-10-31T00:05:48;20.00;99.90
19085;DHT22;9675;51.538;6.728;2022-10-31T00:08:16;20.00;99.90
19085;DHT22;9675;51.538;6.728;2022-10-31T00:10:46;20.00;99.90
19085;DHT22;9675;51.538;6.728;2022-10-31T00:13:13;20.00;99.90
19085;DHT22;9675;51.538;6.728;2022-10-31T00:15:41;20.00;99.90
19085;DHT22;9675;51.538;6.728;2022-10-31T00:18:09;20.00;99.90
19085;DHT22;9675;51.538;6.728;2022-10-31T00:20:37;20.00;99.90
19085;DHT22;9675;51.538;6.728;2022-10-31T00:23:05;20.00;99.90
19085;DHT22;9675;51.538;6.728;2022-10-31T00:25:36;20.00;99.90
19085;DHT22;9675;51.538;6.728;2022-10-31T00:28:07;20.00;99.90
19085;DHT22;9675;51.538;6.728;2022-10-31T00:30:37;19.90;99.90
19085;DHT22;9675;51.538;6.728;2022-10-31T00:33:04;19.90;99.90
19085;DHT22;9675;51.538;6.728;2022-10-31T00:35:31;19.90;99.90
19085;DHT22;9675;51.538;6.728;2022-10-31T00:37:59;19.90;99.90
19085;DHT22;9675;51.538;6.728;2022-10-31T00:40:26;19.90;99.90
19085;DHT22;9675;51.538;6.728;2022-10-31T00:42:53;19.80;99.90
19085;DHT22;9675;51.538;6.728;2022-10-31T00:45:21;19.80;99.90
19085;DHT22;9675;51.538;6.728;2022-10-31T00:47:48;19.80;99.90
19085;DHT22;9675;51.538;6.728;2022-10-31T00:50:15;19.70;99.90
19085;DHT22;9675;51.538;6.728;2022-10-31T00:52:42;19.70;99.90
19085;DHT22;9675;51.538;6.728;2022-10-31T00:55:09;19.70;99.90
19085;DHT22;9675;51.538;6.728;2022-10-31T00:57:36;19.70;99.90
19085;DHT22;9675;51.538;6.728;2022-10-31T01:00:04;19.70;99.90
19085;DHT22;9675;51.538;6.728;2022-10-31T01:02:33;19.70;99.90
19085;DHT22;9675;51.538;6.728;2022-10-31T01:05:01;19.70;99.90
19085;DHT22;9675;51.538;6.728;2022-10-31T01:07:28;19.60;99.90
19085;DHT22;9675;51.538;6.728;2022-10-31T01:09:55;19.60;99.90
19085;DHT22;9675;51.538;6.728;2022-10-31T01:12:22;19.60;99.90
19085;DHT22;9675;51.538;6.728;2022-10-31T01:14:49;19.60;99.90
19085;DHT22;9675;51.538;6.728;2022-10-31T01:17:16;19.60;99.90
19085;DHT22;9675;51.538;6.728;2022-10-31T01:19:44;19.50;99.90
19085;DHT22;9675;51.538;6.728;2022-10-31T01:22:11;19.50;99.90
19085;DHT22;9675;51.538;6.728;2022-10-31T01:24:39;19.50;99.90
19085;DHT22;9675;51.538;6.728;2022-10-31T01:27:05;19.50;99.90
19085;DHT22;9675;51.538;6.728;2022-10-31T01:29:32;19.40;99.90
19085;DHT22;9675;51.538;6.728;2022-10-31T01:31:59;19.40;99.90
19085;DHT22;9675;51.538;6.728;2022-10-31T01:34:27;19.40;99.90
19085;DHT22;9675;51.538;6.728;2022-10-31T01:36:56;19.40;99.90
19085;DHT22;9675;51.538;6.728;2022-10-31T01:39:23;19.40;99.90
19085;DHT22;9675;51.538;6.728;2022-10-31T01:41:52;19.30;99.90
19085;DHT22;9675;51.538;6.728;2022-10-31T01:44:49;19.30;99.90
19085;DHT22;9675;51.538;6.728;2022-10-31T01:47:24;19.30;99.90
19085;DHT22;9675;51.538;6.728;2022-10-31T01:50:02;19.20;99.90
19085;DHT22;9675;51.538;6.728;2022-10-31T01:52:37;19.20;99.90
19085;DHT22;9675;51.538;6.728;2022-10-31T01:55:11;19.20;99.90
19085;DHT22;9675;51.538;6.728;2022-10-31T01:57:46;19.10;99.90
19085;DHT22;9675;51.538;6.728;2022-10-31T02:00:17;19.10;99.90
19085;DHT22;9675;51.538;6.728;2022-10-31T02:02:46;19.10;99.90
19085;DHT22;9675;51.538;6.728;2022-10-31T02:05:19;19.00;99.90
19085;DHT22;9675;51.538;6.728;2022-10-31T02:07:54;19.00;99.90
19085;DHT22;9675;51.538;6.728;2022-10-31T02:10:24;19.00;99.90
19085;DHT22;9675;51.538;6.728;2022-10-31T02:12:52;19.00;99.90
19085;DHT22;9675;51.538;6.728;2022-10-31T02:15:22;18.90;99.90
19085;DHT22;9675;51.538;6.728;2022-10-31T02:17:49;18.90;99.90
19085;DHT22;9675;51.538;6.728;2022-10-31T02:20:18;18.90;99.90
19085;DHT22;9675;51.538;6.728;2022-10-31T02:26:26;18.80;99.90
19085;DHT22;9675;51.538;6.728;2022-10-31T02:32:27;18.80;99.90
19085;DHT22;9675;51.538;6.728;2022-10-31T02:35:29;18.70;99.90
19085;DHT22;9675;51.538;6.728;2022-10-31T02:38:18;18.70;99.90
19085;DHT22;9675;51.538;6.728;2022-10-31T02:41:00;18.70;99.90
19085;DHT22;9675;51.538;6.728;2022-10-31T02:43:36;18.70;99.90
19085;DHT22;9675;51.538;6.728;2022-10-31T02:46:15;18.60;99.90
19085;DHT22;9675;51.538;6.728;2022-10-31T02:48:52;18.60;99.90
19085;DHT22;9675;51.538;6.728;2022-10-31T02:51:24;18.50;99.90
19085;DHT22;9675;51.538;6.728;2022-10-31T02:53:52;18.50;99.90
19085;DHT22;9675;51.538;6.728;2022-10-31T02:56:19;18.50;99.90
19085;DHT22;9675;51.538;6.728;2022-10-31T02:58:50;18.50;99.90
19085;DHT22;9675;51.538;6.728;2022-10-31T03:01:43;18.40;99.90
19085;DHT22;9675;51.538;6.728;2022-10-31T03:04:40;18.40;99.90
19085;DHT22;9675;51.538;6.728;2022-10-31T03:07:21;18.40;99.90
19085;DHT22;9675;51.538;6.728;2022-10-31T03:10:01;18.30;99.90
19085;DHT22;9675;51.538;6.728;2022-10-31T03:12:38;18.30;99.90
19085;DHT22;9675;51.538;6.728;2022-10-31T03:15:16;18.30;99.90
19085;DHT22;9675;51.538;6.728;2022-10-31T03:17:55;18.20;99.90
19085;DHT22;9675;51.538;6.728;2022-10-31T03:20:31;18.20;99.90
19085;DHT22;9675;51.538;6.728;2022-10-31T03:23:06;18.20;99.90
19085;DHT22;9675;51.538;6.728;2022-10-31T03:25:38;18.20;99.90
19085;DHT22;9675;51.538;6.728;2022-10-31T03:28:07;18.10;99.90
19085;DHT22;9675;51.538;6.728;2022-10-31T03:30:39;18.10;99.90
19085;DHT22;9675;51.538;6.728;2022-10-31T03:33:10;18.10;99.90
19085;DHT22;9675;51.538;6.728;2022-10-31T03:35:45;18.00;99.90
19085;DHT22;9675;51.538;6.728;2022-10-31T03:38:15;18.00;99.90
19085;DHT22;9675;51.538;6.728;2022-10-31T03:40:44;18.00;99.90
19085;DHT22;9675;51.538;6.728;2022-10-31T03:43:17;18.00;99.90
19085;DHT22;9675;51.538;6.728;2022-10-31T03:45:48;17.90;99.90
19085;DHT22;9675;51.538;6.728;2022-10-31T03:48:18;17.90;99.90
19085;DHT22;9675;51.538;6.728;2022-10-31T03:50:53;17.90;99.90
19085;DHT22;9675;51.538;6.728;2022-10-31T03:53:32;17.90;99.90
19085;DHT22;9675;51.538;6.728;2022-10-31T03:56:09;17.80;99.90
19085;DHT22;9675;51.538;6.728;2022-10-31T03:58:48;17.80;99.90
19085;DHT22;9675;51.538;6.728;2022-10-31T04:01:26;17.80;99.90
19085;DHT22;9675;51.538;6.728;2022-10-31T04:03:58;17.70;99.90
19085;DHT22;9675;51.538;6.728;2022-10-31T04:06:28;17.70;99.90
19085;DHT22;9675;51.538;6.728;2022-10-31T04:09:01;17.70;99.90
19085;DHT22;9675;51.538;6.728;2022-10-31T04:11:34;17.70;99.90
19085;DHT22;9675;51.538;6.728;2022-10-31T04:14:04;17.70;99.90
19085;DHT22;9675;51.538;6.728;2022-10-31T04:16:33;17.60;99.90
19085;DHT22;9675;51.538;6.728;2022-10-31T04:19:00;17.60;99.90
19085;DHT22;9675;51.538;6.728;2022-10-31T04:21:29;17.60;99.90
19085;DHT22;9675;51.538;6.728;2022-10-31T04:23:57;17.60;99.90
19085;DHT22;9675;51.538;6.728;2022-10-31T04:26:24;17.50;99.90
19085;DHT22;9675;51.538;6.728;2022-10-31T04:28:51;17.50;99.90
19085;DHT22;9675;51.538;6.728;2022-10-31T04:31:18;17.50;99.90
19085;DHT22;9675;51.538;6.728;2022-10-31T04:33:46;17.40;99.90
19085;DHT22;9675;51.538;6.728;2022-10-31T04:36:13;17.40;99.90
19085;DHT22;9675;51.538;6.728;2022-10-31T04:38:41;17.40;99.90
19085;DHT22;9675;51.538;6.728;2022-10-31T04:41:08;17.40;99.90
19085;DHT22;9675;51.538;6.728;2022-10-31T04:43:35;17.40;99.90
19085;DHT22;9675;51.538;6.728;2022-10-31T04:46:02;17.30;99.90
19085;DHT22;9675;51.538;6.728;2022-10-31T04:48:30;17.30;99.90
19085;DHT22;9675;51.538;6.728;2022-10-31T04:51:00;17.30;99.90
19085;DHT22;9675;51.538;6.728;2022-10-31T04:53:27;17.30;99.90
19085;DHT22;9675;51.538;6.728;2022-10-31T04:55:57;17.20;99.90
19085;DHT22;9675;51.538;6.728;2022-10-31T04:58:26;17.20;99.90
19085;DHT22;9675;51.538;6.728;2022-10-31T05:00:54;17.20;99.90
19085;DHT22;9675;51.538;6.728;2022-10-31T05:03:21;17.20;99.90
19085;DHT22;9675;51.538;6.728;2022-10-31T05:05:49;17.20;99.90
19085;DHT22;9675;51.538;6.728;2022-10-31T05:08:16;17.20;99.90
19085;DHT22;9675;51.538;6.728;2022-10-31T05:10:43;17.10;99.90
19085;DHT22;9675;51.538;6.728;2022-10-31T05:13:11;17.10;99.90
19085;DHT22;9675;51.538;6.728;2022-10-31T05:15:40;17.10;99.90
19085;DHT22;9675;51.538;6.728;2022-10-31T05:18:07;17.10;99.90
19085;DHT22;9675;51.538;6.728;2022-10-31T05:20:34;17.10;99.90
19085;DHT22;9675;51.538;6.728;2022-10-31T05:23:01;17.10;99.90
19085;DHT22;9675;51.538;6.728;2022-10-31T05:25:28;17.00;99.90
19085;DHT22;9675;51.538;6.728;2022-10-31T05:27:56;17.00;99.90
19085;DHT22;9675;51.538;6.728;2022-10-31T05:30:26;17.00;99.90
19085;DHT22;9675;51.538;6.728;2022-10-31T05:32:55;17.00;99.90
19085;DHT22;9675;51.538;6.728;2022-10-31T05:35:24;17.00;99.90
19085;DHT22;9675;51.538;6.728;2022-10-31T05:37:53;16.90;99.90
19085;DHT22;9675;51.538;6.728;2022-10-31T05:40:21;16.90;99.90
19085;DHT22;9675;51.538;6.728;2022-10-31T05:42:51;16.90;99.90
19085;DHT22;9675;51.538;6.728;2022-10-31T05:45:19;16.80;99.90
19085;DHT22;9675;51.538;6.728;2022-10-31T05:47:52;16.90;99.90
19085;DHT22;9675;51.538;6.728;2022-10-31T05:50:20;16.80;99.90
19085;DHT22;9675;51.538;6.728;2022-10-31T05:52:54;16.80;99.90
19085;DHT22;9675;51.538;6.728;2022-10-31T05:55:22;16.80;99.90
19085;DHT22;9675;51.538;6.728;2022-10-31T05:57:51;16.80;99.90
19085;DHT22;9675;51.538;6.728;2022-10-31T06:00:18;16.80;99.90
19085;DHT22;9675;51.538;6.728;2022-10-31T06:02:46;16.70;99.90
19085;DHT22;9675;51.538;6.728;2022-10-31T06:05:15;16.70;99.90
19085;DHT22;9675;51.538;6.728;2022-10-31T06:07:42;16.70;99.90
19085;DHT22;9675;51.538;6.728;2022-10-31T06:10:10;16.70;99.90
19085;DHT22;9675;51.538;6.728;2022-10-31T06:12:37;16.60;99.90
19085;DHT22;9675;51.538;6.728;2022-10-31T06:15:07;16.60;99.90
19085;DHT22;9675;51.538;6.728;2022-10-31T06:17:35;16.60;99.90
19085;DHT22;9675;51.538;6.728;2022-10-31T06:20:03;16.60;99.90
19085;DHT22;9675;51.538;6.728;2022-10-31T06:22:33;16.60;99.90
19085;DHT22;9675;51.538;6.728;2022-10-31T06:25:00;16.50;99.90
19085;DHT22;9675;51.538;6.728;2022-10-31T06:27:27;16.50;99.90
19085;DHT22;9675;51.538;6.728;2022-10-31T06:29:54;16.50;99.90
19085;DHT22;9675;51.538;6.728;2022-10-31T06:32:21;16.40;99.90
19085;DHT22;9675;51.538;6.728;2022-10-31T06:34:49;16.40;99.90
19085;DHT22;9675;51.538;6.728;2022-10-31T06:37:16;16.40;99.90
19085;DHT22;9675;51.538;6.728;2022-10-31T06:39:44;16.40;99.90
19085;DHT22;9675;51.538;6.728;2022-10-31T06:42:11;16.40;99.90
19085;DHT22;9675;51.538;6.728;2022-10-31T06:44:38;16.40;99.90
19085;DHT22;9675;51.538;6.728;2022-10-31T06:47:06;16.40;99.90
19085;DHT22;9675;51.538;6.728;2022-10-31T06:49:33;16.30;99.90
19085;DHT22;9675;51.538;6.728;2022-10-31T06:52:00;16.30;99.90
19085;DHT22;9675;51.538;6.728;2022-10-31T06:54:27;16.30;99.90
19085;DHT22;9675;51.538;6.728;2022-10-31T06:56:55;16.30;99.90
19085;DHT22;9675;51.538;6.728;2022-10-31T06:59:22;16.30;99.90
19085;DHT22;9675;51.538;6.728;2022-10-31T07:01:50;16.30;99.90
19085;DHT22;9675;51.538;6.728;2022-10-31T07:04:17;16.30;99.90
19085;DHT22;9675;51.538;6.728;2022-10-31T07:06:44;16.20;99.90
19085;DHT22;9675;51.538;6.728;2022-10-31T07:09:11;16.20;99.90
19085;DHT22;9675;51.538;6.728;2022-10-31T07:11:39;16.20;99.90
19085;DHT22;9675;51.538;6.728;2022-10-31T07:14:07;16.20;99.90
19085;DHT22;9675;51.538;6.728;2022-10-31T07:16:34;16.20;99.90
19085;DHT22;9675;51.538;6.728;2022-10-31T07:19:01;16.20;99.90
19085;DHT22;9675;51.538;6.728;2022-10-31T07:21:28;16.20;99.90
19085;DHT22;9675;51.538;6.728;2022-10-31T07:23:56;16.20;99.90
19085;DHT22;9675;51.538;6.728;2022-10-31T07:26:23;16.10;99.90
19085;DHT22;9675;51.538;6.728;2022-10-31T07:28:51;16.10;99.90
19085;DHT22;9675;51.538;6.728;2022-10-31T07:31:20;16.10;99.90
19085;DHT22;9675;51.538;6.728;2022-10-31T07:33:47;16.10;99.90
19085;DHT22;9675;51.538;6.728;2022-10-31T07:36:14;16.10;99.90
19085;DHT22;9675;51.538;6.728;2022-10-31T07:38:41;16.10;99.90
19085;DHT22;9675;51.538;6.728;2022-10-31T07:41:08;16.10;99.90
19085;DHT22;9675;51.538;6.728;2022-10-31T07:43:35;16.10;99.90
19085;DHT22;9675;51.538;6.728;2022-10-31T07:46:02;16.10;99.90
19085;DHT22;9675;51.538;6.728;2022-10-31T07:48:30;16.10;99.90
19085;DHT22;9675;51.538;6.728;2022-10-31T07:50:57;16.00;99.90
19085;DHT22;9675;51.538;6.728;2022-10-31T07:53:24;16.00;99.90
19085;DHT22;9675;51.538;6.728;2022-10-31T07:55:51;16.00;99.90
19085;DHT22;9675;51.538;6.728;2022-10-31T07:58:18;16.10;99.90
19085;DHT22;9675;51.538;6.728;2022-10-31T08:00:46;16.00;99.90
19085;DHT22;9675;51.538;6.728;2022-10-31T08:03:15;16.00;99.90
19085;DHT22;9675;51.538;6.728;2022-10-31T08:05:45;16.00;99.90
19085;DHT22;9675;51.538;6.728;2022-10-31T08:08:13;16.00;99.90
19085;DHT22;9675;51.538;6.728;2022-10-31T08:10:41;16.00;99.90
19085;DHT22;9675;51.538;6.728;2022-10-31T08:13:10;16.00;99.90
19085;DHT22;9675;51.538;6.728;2022-10-31T08:15:38;16.00;99.90
19085;DHT22;9675;51.538;6.728;2022-10-31T08:18:11;16.00;99.90
19085;DHT22;9675;51.538;6.728;2022-10-31T08:20:40;16.00;99.90
19085;DHT22;9675;51.538;6.728;2022-10-31T08:23:10;16.00;99.90
19085;DHT22;9675;51.538;6.728;2022-10-31T08:25:39;16.00;99.90
19085;DHT22;9675;51.538;6.728;2022-10-31T08:28:09;16.00;99.90
19085;DHT22;9675;51.538;6.728;2022-10-31T08:30:37;16.00;99.90
19085;DHT22;9675;51.538;6.728;2022-10-31T08:33:05;15.90;99.90
19085;DHT22;9675;51.538;6.728;2022-10-31T08:35:35;16.00;99.90
19085;DHT22;9675;51.538;6.728;2022-10-31T08:38:02;15.90;99.90
19085;DHT22;9675;51.538;6.728;2022-10-31T08:40:32;15.90;99.90
19085;DHT22;9675;51.538;6.728;2022-10-31T08:43:02;15.90;99.90
19085;DHT22;9675;51.538;6.728;2022-10-31T08:45:32;15.80;99.90
19085;DHT22;9675;51.538;6.728;2022-10-31T08:48:01;15.80;99.90
19085;DHT22;9675;51.538;6.728;2022-10-31T08:50:32;15.90;99.90
19085;DHT22;9675;51.538;6.728;2022-10-31T08:53:00;15.90;99.90
19085;DHT22;9675;51.538;6.728;2022-10-31T08:55:27;15.90;99.90
19085;DHT22;9675;51.538;6.728;2022-10-31T08:57:57;15.90;99.90
19085;DHT22;9675;51.538;6.728;2022-10-31T09:00:25;15.90;99.90
19085;DHT22;9675;51.538;6.728;2022-10-31T09:02:56;15.90;99.90
19085;DHT22;9675;51.538;6.728;2022-10-31T09:05:23;15.90;99.90
19085;DHT22;9675;51.538;6.728;2022-10-31T09:07:51;15.90;99.90
19085;DHT22;9675;51.538;6.728;2022-10-31T09:10:22;15.90;99.90
19085;DHT22;9675;51.538;6.728;2022-10-31T09:12:56;15.90;99.90
19085;DHT22;9675;51.538;6.728;2022-10-31T09:15:23;15.90;99.90
19085;DHT22;9675;51.538;6.728;2022-10-31T09:17:51;15.90;99.90
19085;DHT22;9675;51.538;6.728;2022-10-31T09:20:18;16.00;99.90
19085;DHT22;9675;51.538;6.728;2022-10-31T09:22:45;16.00;99.90
19085;DHT22;9675;51.538;6.728;2022-10-31T09:25:13;16.10;99.90
19085;DHT22;9675;51.538;6.728;2022-10-31T09:27:41;16.10;99.90
19085;DHT22;9675;51.538;6.728;2022-10-31T09:30:10;16.10;99.90
19085;DHT22;9675;51.538;6.728;2022-10-31T09:32:37;16.20;99.90
19085;DHT22;9675;51.538;6.728;2022-10-31T09:35:05;16.20;99.90
19085;DHT22;9675;51.538;6.728;2022-10-31T09:37:33;16.20;99.90
19085;DHT22;9675;51.538;6.728;2022-10-31T09:40:00;16.30;99.90
19085;DHT22;9675;51.538;6.728;2022-10-31T09:42:49;16.30;99.90
19085;DHT22;9675;51.538;6.728;2022-10-31T09:45:29;16.40;99.90
19085;DHT22;9675;51.538;6.728;2022-10-31T09:48:09;16.40;99.90
19085;DHT22;9675;51.538;6.728;2022-10-31T09:50:54;16.40;99.90
19085;DHT22;9675;51.538;6.728;2022-10-31T09:53:29;16.40;99.90
19085;DHT22;9675;51.538;6.728;2022-10-31T09:56:05;16.40;99.90
19085;DHT22;9675;51.538;6.728;2022-10-31T09:58:41;16.50;99.90
19085;DHT22;9675;51.538;6.728;2022-10-31T10:01:28;16.50;99.90
19085;DHT22;9675;51.538;6.728;2022-10-31T10:04:02;16.50;99.90
19085;DHT22;9675;51.538;6.728;2022-10-31T10:06:38;16.50;99.90
19085;DHT22;9675;51.538;6.728;2022-10-31T10:09:11;16.60;99.90
19085;DHT22;9675;51.538;6.728;2022-10-31T10:11:53;16.60;99.90
19085;DHT22;9675;51.538;6.728;2022-10-31T10:14:42;16.60;99.90
19085;DHT22;9675;51.538;6.728;2022-10-31T10:17:30;16.60;99.90
19085;DHT22;9675;51.538;6.728;2022-10-31T10:20:21;16.70;99.90
19085;DHT22;9675;51.538;6.728;2022-10-31T10:23:06;16.70;99.90
19085;DHT22;9675;51.538;6.728;2022-10-31T10:25:47;16.70;99.90
19085;DHT22;9675;51.538;6.728;2022-10-31T10:28:22;16.80;99.90
19085;DHT22;9675;51.538;6.728;2022-10-31T10:30:57;16.80;99.90
19085;DHT22;9675;51.538;6.728;2022-10-31T10:33:33;16.90;99.90
19085;DHT22;9675;51.538;6.728;2022-10-31T10:36:05;16.90;99.90
19085;DHT22;9675;51.538;6.728;2022-10-31T10:38:39;17.00;99.90
19085;DHT22;9675;51.538;6.728;2022-10-31T10:41:17;17.00;99.90
19085;DHT22;9675;51.538;6.728;2022-10-31T10:43:48;17.10;99.90
19085;DHT22;9675;51.538;6.728;2022-10-31T10:46:19;17.10;99.90
19085;DHT22;9675;51.538;6.728;2022-10-31T10:49:17;17.20;99.90
19085;DHT22;9675;51.538;6.728;2022-10-31T10:51:50;17.20;99.90
19085;DHT22;9675;51.538;6.728;2022-10-31T10:54:39;17.30;99.90
19085;DHT22;9675;51.538;6.728;2022-10-31T10:57:21;17.30;99.90
19085;DHT22;9675;51.538;6.728;2022-10-31T10:59:54;17.40;99.90
19085;DHT22;9675;51.538;6.728;2022-10-31T11:02:23;17.40;99.90
19085;DHT22;9675;51.538;6.728;2022-10-31T11:04:55;17.40;99.90
19085;DHT22;9675;51.538;6.728;2022-10-31T11:07:25;17.50;99.90
19085;DHT22;9675;51.538;6.728;2022-10-31T11:10:03;17.50;99.90
19085;DHT22;9675;51.538;6.728;2022-10-31T11:12:39;17.50;99.90
19085;DHT22;9675;51.538;6.728;2022-10-31T11:15:17;17.60;99.90
19085;DHT22;9675;51.538;6.728;2022-10-31T11:17:48;17.60;99.90
19085;DHT22;9675;51.538;6.728;2022-10-31T11:20:28;17.70;99.90
19085;DHT22;9675;51.538;6.728;2022-10-31T11:23:03;17.70;99.90
19085;DHT22;9675;51.538;6.728;2022-10-31T11:25:33;17.70;99.90
19085;DHT22;9675;51.538;6.728;2022-10-31T11:28:00;17.70;99.90
19085;DHT22;9675;51.538;6.728;2022-10-31T11:30:29;17.80;99.90
19085;DHT22;9675;51.538;6.728;2022-10-31T11:32:58;17.80;99.90
19085;DHT22;9675;51.538;6.728;2022-10-31T11:35:26;17.80;99.90
19085;DHT22;9675;51.538;6.728;2022-10-31T11:38:05;17.90;99.90
19085;DHT22;9675;51.538;6.728;2022-10-31T11:40:33;17.90;99.90
19085;DHT22;9675;51.538;6.728;2022-10-31T11:43:00;17.90;99.90
19085;DHT22;9675;51.538;6.728;2022-10-31T11:45:30;18.00;99.90
19085;DHT22;9675;51.538;6.728;2022-10-31T11:48:01;17.90;99.90
19085;DHT22;9675;51.538;6.728;2022-10-31T11:50:35;18.00;99.90
19085;DHT22;9675;51.538;6.728;2022-10-31T11:53:13;18.00;99.90
19085;DHT22;9675;51.538;6.728;2022-10-31T11:55:44;18.10;99.90
19085;DHT22;9675;51.538;6.728;2022-10-31T11:58:23;18.10;99.90
19085;DHT22;9675;51.538;6.728;2022-10-31T12:00:53;18.10;99.90
19085;DHT22;9675;51.538;6.728;2022-10-31T12:03:43;18.10;99.90
19085;DHT22;9675;51.538;6.728;2022-10-31T12:06:24;18.20;99.90
19085;DHT22;9675;51.538;6.728;2022-10-31T12:08:58;18.20;99.90
19085;DHT22;9675;51.538;6.728;2022-10-31T12:11:39;18.20;99.90
19085;DHT22;9675;51.538;6.728;2022-10-31T12:14:23;18.20;99.90
19085;DHT22;9675;51.538;6.728;2022-10-31T12:17:04;18.30;99.90
19085;DHT22;9675;51.538;6.728;2022-10-31T12:19:43;18.30;99.90
19085;DHT22;9675;51.538;6.728;2022-10-31T12:22:20;18.40;99.90
19085;DHT22;9675;51.538;6.728;2022-10-31T12:25:07;18.40;99.90
19085;DHT22;9675;51.538;6.728;2022-10-31T12:31:16;18.40;99.90
19085;DHT22;9675;51.538;6.728;2022-10-31T12:33:58;18.50;99.90
19085;DHT22;9675;51.538;6.728;2022-10-31T12:36:46;18.50;99.90
19085;DHT22;9675;51.538;6.728;2022-10-31T12:39:34;18.50;99.90
19085;DHT22;9675;51.538;6.728;2022-10-31T12:42:19;18.50;99.90
19085;DHT22;9675;51.538;6.728;2022-10-31T12:45:03;18.50;99.90
19085;DHT22;9675;51.538;6.728;2022-10-31T12:47:50;18.60;99.90
19085;DHT22;9675;51.538;6.728;2022-10-31T12:50:36;18.60;99.90
19085;DHT22;9675;51.538;6.728;2022-10-31T12:53:26;18.60;99.90
19085;DHT22;9675;51.538;6.728;2022-10-31T12:56:11;18.60;99.90
19085;DHT22;9675;51.538;6.728;2022-10-31T12:58:52;18.70;99.90
19085;DHT22;9675;51.538;6.728;2022-10-31T13:01:30;18.70;99.90
19085;DHT22;9675;51.538;6.728;2022-10-31T13:04:03;18.70;99.90
19085;DHT22;9675;51.538;6.728;2022-10-31T13:06:42;18.80;99.90
19085;DHT22;9675;51.538;6.728;2022-10-31T13:09:19;18.80;99.90
19085;DHT22;9675;51.538;6.728;2022-10-31T13:11:55;18.90;99.90
19085;DHT22;9675;51.538;6.728;2022-10-31T13:14:28;18.90;99.90
19085;DHT22;9675;51.538;6.728;2022-10-31T13:17:00;18.90;99.90
19085;DHT22;9675;51.538;6.728;2022-10-31T13:19:31;19.00;99.90
19085;DHT22;9675;51.538;6.728;2022-10-31T13:22:06;19.00;99.90
19085;DHT22;9675;51.538;6.728;2022-10-31T13:24:40;19.00;99.90
19085;DHT22;9675;51.538;6.728;2022-10-31T13:27:15;19.10;99.90
19085;DHT22;9675;51.538;6.728;2022-10-31T13:29:56;19.10;99.90
19085;DHT22;9675;51.538;6.728;2022-10-31T13:32:43;19.10;99.90
19085;DHT22;9675;51.538;6.728;2022-10-31T13:35:20;19.10;99.90
19085;DHT22;9675;51.538;6.728;2022-10-31T13:40:52;19.20;99.90
19085;DHT22;9675;51.538;6.728;2022-10-31T13:43:30;19.20;99.90
19085;DHT22;9675;51.538;6.728;2022-10-31T13:46:22;19.20;99.90
19085;DHT22;9675;51.538;6.728;2022-10-31T13:48:51;19.30;99.90
19085;DHT22;9675;51.538;6.728;2022-10-31T13:51:25;19.30;99.90
19085;DHT22;9675;51.538;6.728;2022-10-31T13:53:59;19.30;99.90
19085;DHT22;9675;51.538;6.728;2022-10-31T13:56:29;19.30;99.90
19085;DHT22;9675;51.538;6.728;2022-10-31T13:59:21;19.40;99.90
19085;DHT22;9675;51.538;6.728;2022-10-31T14:01:53;19.40;99.90
19085;DHT22;9675;51.538;6.728;2022-10-31T14:04:24;19.40;99.90
19085;DHT22;9675;51.538;6.728;2022-10-31T14:07:04;19.50;99.90
19085;DHT22;9675;51.538;6.728;2022-10-31T14:09:35;19.50;99.90
19085;DHT22;9675;51.538;6.728;2022-10-31T14:12:08;19.50;99.90
19085;DHT22;9675;51.538;6.728;2022-10-31T14:14:47;19.50;99.90
19085;DHT22;9675;51.538;6.728;2022-10-31T14:17:20;19.50;99.90
19085;DHT22;9675;51.538;6.728;2022-10-31T14:23:36;19.50;99.90
19085;DHT22;9675;51.538;6.728;2022-10-31T14:26:19;19.50;99.90
19085;DHT22;9675;51.538;6.728;2022-10-31T14:28:57;19.60;99.90
19085;DHT22;9675;51.538;6.728;2022-10-31T14:31:34;19.60;99.90
19085;DHT22;9675;51.538;6.728;2022-10-31T14:34:17;19.60;99.90
19085;DHT22;9675;51.538;6.728;2022-10-31T14:37:08;19.60;99.90
19085;DHT22;9675;51.538;6.728;2022-10-31T14:39:56;19.60;99.90
19085;DHT22;9675;51.538;6.728;2022-10-31T14:42:44;19.60;99.90
19085;DHT22;9675;51.538;6.728;2022-10-31T14:45:36;19.60;99.90
19085;DHT22;9675;51.538;6.728;2022-10-31T14:48:31;19.60;99.90
19085;DHT22;9675;51.538;6.728;2022-10-31T14:51:20;19.60;99.90
19085;DHT22;9675;51.538;6.728;2022-10-31T14:53:51;19.60;99.90
19085;DHT22;9675;51.538;6.728;2022-10-31T14:56:23;19.60;99.90
19085;DHT22;9675;51.538;6.728;2022-10-31T14:58:53;19.60;99.90
19085;DHT22;9675;51.538;6.728;2022-10-31T15:01:24;19.60;99.90
19085;DHT22;9675;51.538;6.728;2022-10-31T15:03:58;19.70;99.90
19085;DHT22;9675;51.538;6.728;2022-10-31T15:06:37;19.60;99.90
19085;DHT22;9675;51.538;6.728;2022-10-31T15:09:21;19.60;99.90
19085;DHT22;9675;51.538;6.728;2022-10-31T15:11:49;19.70;99.90
19085;DHT22;9675;51.538;6.728;2022-10-31T15:14:24;19.60;99.90
19085;DHT22;9675;51.538;6.728;2022-10-31T15:16:53;19.70;99.90
19085;DHT22;9675;51.538;6.728;2022-10-31T15:19:26;19.70;99.90
19085;DHT22;9675;51.538;6.728;2022-10-31T15:21:56;19.70;99.90
19085;DHT22;9675;51.538;6.728;2022-10-31T15:24:29;19.70;99.90
19085;DHT22;9675;51.538;6.728;2022-10-31T15:26:59;19.70;99.90
19085;DHT22;9675;51.538;6.728;2022-10-31T15:29:27;19.70;99.90
19085;DHT22;9675;51.538;6.728;2022-10-31T15:31:56;19.70;99.90
19085;DHT22;9675;51.538;6.728;2022-10-31T15:34:35;19.70;99.90
19085;DHT22;9675;51.538;6.728;2022-10-31T15:37:07;19.70;99.90
19085;DHT22;9675;51.538;6.728;2022-10-31T15:39:37;19.70;99.90
19085;DHT22;9675;51.538;6.728;2022-10-31T15:42:13;19.70;99.90
19085;DHT22;9675;51.538;6.728;2022-10-31T15:44:47;19.70;99.90
19085;DHT22;9675;51.538;6.728;2022-10-31T15:47:21;19.70;99.90
19085;DHT22;9675;51.538;6.728;2022-10-31T15:49:53;19.70;99.90
19085;DHT22;9675;51.538;6.728;2022-10-31T15:52:27;19.70;99.90
19085;DHT22;9675;51.538;6.728;2022-10-31T15:55:00;19.70;99.90
19085;DHT22;9675;51.538;6.728;2022-10-31T15:57:30;19.70;99.90
19085;DHT22;9675;51.538;6.728;2022-10-31T15:59:58;19.60;99.90
19085;DHT22;9675;51.538;6.728;2022-10-31T16:02:26;19.60;99.90
19085;DHT22;9675;51.538;6.728;2022-10-31T16:04:57;19.60;99.90
19085;DHT22;9675;51.538;6.728;2022-10-31T16:07:26;19.60;99.90
19085;DHT22;9675;51.538;6.728;2022-10-31T16:09:58;19.60;99.90
19085;DHT22;9675;51.538;6.728;2022-10-31T16:12:31;19.60;99.90
19085;DHT22;9675;51.538;6.728;2022-10-31T16:15:02;19.60;99.90
19085;DHT22;9675;51.538;6.728;2022-10-31T16:17:31;19.60;99.90
19085;DHT22;9675;51.538;6.728;2022-10-31T16:20:02;19.50;99.90
19085;DHT22;9675;51.538;6.728;2022-10-31T16:22:33;19.50;99.90
19085;DHT22;9675;51.538;6.728;2022-10-31T16:25:05;19.50;99.90
19085;DHT22;9675;51.538;6.728;2022-10-31T16:27:37;19.50;99.90
19085;DHT22;9675;51.538;6.728;2022-10-31T16:30:27;19.40;99.90
19085;DHT22;9675;51.538;6.728;2022-10-31T16:32:58;19.50;99.90
19085;DHT22;9675;51.538;6.728;2022-10-31T16:35:32;19.40;99.90